createdAt,value
2022-09-26T00:00:48.192Z,12.43000031
2022-09-26T00:01:49.170Z,12.43000031
2022-09-26T00:02:45.837Z,12.40999985
2022-09-26T00:03:44.430Z,12.42000008
2022-09-26T00:06:28.027Z,12.52000046
2022-09-26T00:07:08.860Z,12.57999992
2022-09-26T00:08:06.564Z,12.57999992
2022-09-26T00:09:07.504Z,12.56999969
2022-09-26T00:10:09.767Z,12.56000042
2022-09-26T00:11:08.019Z,12.52000046
2022-09-26T00:12:06.380Z,12.47000027
2022-09-26T00:13:05.406Z,12.44999981
2022-09-26T00:14:01.653Z,12.43000031
2022-09-26T00:15:02.095Z,12.43999958
2022-09-26T00:16:13.122Z,12.43000031
2022-09-26T00:17:12.140Z,12.40999985
2022-09-26T00:18:10.142Z,12.36999989
2022-09-26T00:19:14.192Z,12.38000011
2022-09-26T00:20:08.706Z,12.39000034
2022-09-26T00:21:10.516Z,12.38000011
2022-09-26T00:22:05.745Z,12.38000011
2022-09-26T00:23:07.275Z,12.38000011
2022-09-26T00:24:01.495Z,12.38000011
2022-09-26T00:25:12.126Z,12.39000034
2022-09-26T00:26:04.055Z,12.36999989
2022-09-26T00:27:03.156Z,12.34000015
2022-09-26T00:28:00.157Z,12.30000019
2022-09-26T00:28:59.304Z,12.31000042
2022-09-26T00:30:52.288Z,12.27999973
2022-09-26T00:31:51.324Z,12.27000046
2022-09-26T00:32:47.798Z,12.26000023
2022-09-26T00:33:45.298Z,12.25
2022-09-26T00:34:01.514Z,12.25
2022-09-26T00:35:35.154Z,12.46000004
2022-09-26T00:37:58.793Z,12.92000008
2022-09-26T00:38:46.560Z,12.92000008
2022-09-26T00:40:52.948Z,12.84000015
2022-09-26T00:41:53.027Z,12.75
2022-09-26T00:42:49.159Z,12.68999958
2022-09-26T00:43:51.755Z,12.64000034
2022-09-26T00:44:46.330Z,12.60000038
2022-09-26T00:45:45.772Z,12.56000042
2022-09-26T00:46:46.000Z,12.51000023
2022-09-26T00:47:46.434Z,12.47000027
2022-09-26T00:48:46.635Z,12.42000008
2022-09-26T00:50:39.665Z,12.40999985
2022-09-26T00:51:42.233Z,12.39999962
2022-09-26T00:52:36.391Z,12.39000034
2022-09-26T00:53:41.260Z,12.39999962
2022-09-26T00:54:34.860Z,12.39000034
2022-09-26T00:55:33.607Z,12.39999962
2022-09-26T00:56:36.463Z,12.39000034
2022-09-26T00:57:38.733Z,12.36999989
2022-09-26T00:58:40.943Z,12.38000011
2022-09-26T01:00:37.745Z,12.35000038
2022-09-26T01:01:35.828Z,12.31999969
2022-09-26T01:02:34.076Z,12.34000015
2022-09-26T01:03:35.129Z,12.32999992
2022-09-26T01:04:31.586Z,12.34000015
2022-09-26T01:05:37.482Z,12.38000011
2022-09-26T01:06:33.612Z,12.38000011
2022-09-26T01:07:31.610Z,12.36999989
2022-09-26T01:08:25.920Z,12.36999989
2022-09-26T01:09:23.413Z,12.39000034
2022-09-26T01:10:28.063Z,12.39000034
2022-09-26T01:11:19.744Z,12.38000011
2022-09-26T01:12:19.291Z,12.39999962
2022-09-26T01:13:17.839Z,12.36999989
2022-09-26T01:14:16.012Z,12.35000038
2022-09-26T01:15:19.332Z,12.35000038
2022-09-26T01:16:11.119Z,12.34000015
2022-09-26T01:17:12.737Z,12.35000038
2022-09-26T01:18:03.991Z,12.34000015
2022-09-26T01:19:49.228Z,12.44999981
2022-09-26T01:20:33.985Z,12.51000023
2022-09-26T01:21:34.142Z,12.52999973
2022-09-26T01:22:39.543Z,12.47000027
2022-09-26T01:23:34.773Z,12.44999981
2022-09-26T01:24:34.939Z,12.44999981
2022-09-26T01:25:30.603Z,12.40999985
2022-09-26T01:26:31.087Z,12.40999985
2022-09-26T01:27:33.892Z,12.40999985
2022-09-26T01:28:32.892Z,12.39999962
2022-09-26T01:29:28.246Z,12.42000008
2022-09-26T01:30:26.997Z,12.38000011
2022-09-26T01:31:25.022Z,12.38000011
2022-09-26T01:32:28.888Z,12.39000034
2022-09-26T01:33:26.235Z,12.36999989
2022-09-26T01:34:32.651Z,12.35000038
2022-09-26T01:35:31.636Z,12.36999989
2022-09-26T01:36:33.081Z,12.32999992
2022-09-26T01:37:27.620Z,12.31000042
2022-09-26T01:38:30.440Z,12.30000019
2022-09-26T01:40:23.623Z,12.32999992
2022-09-26T01:41:24.000Z,12.35000038
2022-09-26T01:42:24.114Z,12.39000034
2022-09-26T01:43:27.367Z,12.38000011
2022-09-26T01:45:23.821Z,12.27999973
2022-09-26T01:46:24.156Z,12.28999996
2022-09-26T01:47:24.243Z,12.27000046
2022-09-26T01:48:18.603Z,12.27000046
2022-09-26T01:49:20.892Z,12.30000019
2022-09-26T01:50:13.779Z,12.31000042
2022-09-26T01:51:13.451Z,12.30000019
2022-09-26T01:52:08.234Z,12.30000019
2022-09-26T01:53:07.874Z,12.31999969
2022-09-26T01:54:03.889Z,12.30000019
2022-09-26T01:55:05.362Z,12.30000019
2022-09-26T01:55:57.809Z,12.28999996
2022-09-26T01:56:58.381Z,12.27999973
2022-09-26T01:57:54.338Z,12.27999973
2022-09-26T01:59:00.027Z,12.30000019
2022-09-26T02:00:25.517Z,12.30000019
2022-09-26T02:01:08.499Z,12.32999992
2022-09-26T02:02:15.445Z,12.31000042
2022-09-26T02:03:13.345Z,12.31000042
2022-09-26T02:04:13.478Z,12.27999973
2022-09-26T02:05:09.742Z,12.31000042
2022-09-26T02:06:12.526Z,12.30000019
2022-09-26T02:07:06.699Z,12.28999996
2022-09-26T02:08:07.218Z,12.27999973
2022-09-26T02:09:02.614Z,12.28999996
2022-09-26T02:10:58.414Z,12.27999973
2022-09-26T02:12:02.873Z,12.26000023
2022-09-26T02:13:03.531Z,12.23999977
2022-09-26T02:14:02.955Z,12.22999954
2022-09-26T02:15:59.049Z,12.25
2022-09-26T02:16:57.046Z,12.22000027
2022-09-26T02:17:57.716Z,12.22000027
2022-09-26T02:18:57.267Z,12.19999981
2022-09-26T02:20:56.591Z,12.18000031
2022-09-26T02:21:54.674Z,12.17000008
2022-09-26T02:22:56.464Z,12.15999985
2022-09-26T02:23:54.483Z,12.15999985
2022-09-26T02:25:52.750Z,12.09000015
2022-09-26T02:26:54.534Z,12.06000042
2022-09-26T02:27:54.613Z,12.07999992
2022-09-26T02:29:00.411Z,12.09000015
2022-09-26T02:29:53.195Z,12.09000015
2022-09-26T02:30:55.047Z,12.06999969
2022-09-26T02:31:54.651Z,12.06000042
2022-09-26T02:32:54.700Z,12.06000042
2022-09-26T02:33:53.777Z,12.02999973
2022-09-26T02:36:37.243Z,12.09000015
2022-09-26T02:37:24.874Z,12.14999962
2022-09-26T02:38:23.595Z,12.15999985
2022-09-26T02:40:31.886Z,12.10999966
2022-09-26T02:41:38.460Z,12.07999992
2022-09-26T02:42:40.605Z,12.05000019
2022-09-26T02:43:42.621Z,12.02000046
2022-09-26T02:45:44.520Z,12.02000046
2022-09-26T02:46:45.446Z,11.98999977
2022-09-26T02:47:47.348Z,12.01000023
2022-09-26T02:48:48.866Z,11.97999954
2022-09-26T02:50:49.913Z,12
2022-09-26T02:51:51.603Z,12
2022-09-26T02:52:52.691Z,12.02000046
2022-09-26T02:53:53.761Z,11.97000027
2022-09-26T02:54:52.944Z,12.01000023
2022-09-26T02:55:57.358Z,11.98999977
2022-09-26T02:56:56.359Z,12
2022-09-26T02:57:58.679Z,12.02999973
2022-09-26T02:59:03.675Z,12.02000046
2022-09-26T02:59:59.032Z,12.05000019
2022-09-26T03:00:59.550Z,12.03999996
2022-09-26T03:02:10.120Z,12.03999996
2022-09-26T03:03:09.260Z,12.03999996
2022-09-26T03:04:13.090Z,12.06999969
2022-09-26T03:06:06.182Z,12.10999966
2022-09-26T03:07:08.217Z,12.13000011
2022-09-26T03:08:06.523Z,12.11999989
2022-09-26T03:09:11.381Z,12.13000011
2022-09-26T03:11:06.266Z,12.14999962
2022-09-26T03:12:52.017Z,12.15999985
2022-09-26T03:13:33.571Z,12.22999954
2022-09-26T03:15:36.640Z,12.23999977
2022-09-26T03:16:37.527Z,12.21000004
2022-09-26T03:17:42.967Z,12.19999981
2022-09-26T03:18:48.439Z,12.19999981
2022-09-26T03:19:50.329Z,12.19999981
2022-09-26T03:20:54.051Z,12.18000031
2022-09-26T03:22:02.779Z,12.17000008
2022-09-26T03:23:04.052Z,12.17000008
2022-09-26T03:24:03.190Z,12.15999985
2022-09-26T03:26:02.373Z,12.18999958
2022-09-26T03:27:05.552Z,12.15999985
2022-09-26T03:28:03.766Z,12.14999962
2022-09-26T03:29:11.271Z,12.15999985
2022-09-26T03:30:08.477Z,12.15999985
2022-09-26T03:31:06.548Z,12.13000011
2022-09-26T03:32:12.515Z,12.14999962
2022-09-26T03:33:12.821Z,12.14999962
2022-09-26T03:34:10.990Z,12.17000008
2022-09-26T03:36:15.345Z,12.14999962
2022-09-26T03:37:15.985Z,12.15999985
2022-09-26T03:38:25.830Z,12.14999962
2022-09-26T03:40:27.322Z,12.15999985
2022-09-26T03:41:31.232Z,12.14000034
2022-09-26T03:42:33.312Z,12.14000034
2022-09-26T03:43:36.143Z,12.10999966
2022-09-26T03:45:35.651Z,12.13000011
2022-09-26T03:46:40.039Z,12.14000034
2022-09-26T03:47:40.082Z,12.13000011
2022-09-26T03:48:34.569Z,12.14000034
2022-09-26T03:49:35.603Z,12.15999985
2022-09-26T03:50:32.121Z,12.15999985
2022-09-26T03:51:36.358Z,12.13000011
2022-09-26T03:52:35.838Z,12.13000011
2022-09-26T03:53:41.184Z,12.09000015
2022-09-26T03:55:37.460Z,12.10999966
2022-09-26T03:56:40.657Z,12.11999989
2022-09-26T03:57:34.646Z,12.13000011
2022-09-26T03:58:42.055Z,12.13000011
2022-09-26T04:00:45.020Z,12.14000034
2022-09-26T04:02:28.785Z,12.18999958
2022-09-26T04:03:11.073Z,12.25
2022-09-26T04:04:08.958Z,12.28999996
2022-09-26T04:06:09.648Z,12.30000019
2022-09-26T04:07:08.652Z,12.27999973
2022-09-26T04:08:03.828Z,12.18999958
2022-09-26T04:09:03.165Z,12.17000008
2022-09-26T04:09:57.806Z,12.15999985
2022-09-26T04:10:58.774Z,12.15999985
2022-09-26T04:11:53.971Z,12.17000008
2022-09-26T04:13:01.937Z,12.14999962
2022-09-26T04:14:01.590Z,12.14000034
2022-09-26T04:15:02.577Z,12.14000034
2022-09-26T04:16:02.079Z,12.10000038
2022-09-26T04:17:02.301Z,12.07999992
2022-09-26T04:17:56.819Z,12.10000038
2022-09-26T04:18:58.299Z,12.06999969
2022-09-26T04:19:52.642Z,12.10000038
2022-09-26T04:20:52.383Z,12.10999966
2022-09-26T04:21:46.593Z,12.09000015
2022-09-26T04:22:46.192Z,12.06000042
2022-09-26T04:23:41.711Z,12.06000042
2022-09-26T04:24:43.249Z,12.07999992
2022-09-26T04:25:44.189Z,12.06999969
2022-09-26T04:26:43.659Z,12.05000019
2022-09-26T04:27:38.230Z,12.05000019
2022-09-26T04:28:39.842Z,12.06000042
2022-09-26T04:29:35.491Z,12.06000042
2022-09-26T04:30:37.057Z,12
2022-09-26T04:31:31.633Z,12.01000023
2022-09-26T04:32:33.758Z,12.03999996
2022-09-26T04:33:31.781Z,12.02999973
2022-09-26T04:35:30.112Z,12.06000042
2022-09-26T04:36:38.031Z,12.06000042
2022-09-26T04:38:21.972Z,12.14999962
2022-09-26T04:39:05.812Z,12.18999958
2022-09-26T04:41:02.134Z,12.23999977
2022-09-26T04:41:58.583Z,12.19999981
2022-09-26T04:43:01.126Z,12.19999981
2022-09-26T04:43:58.458Z,12.17000008
2022-09-26T04:45:04.181Z,12.14999962
2022-09-26T04:46:03.266Z,12.11999989
2022-09-26T04:47:01.959Z,12.10999966
2022-09-26T04:47:58.643Z,12.11999989
2022-09-26T04:49:03.614Z,12.10000038
2022-09-26T04:50:07.347Z,12.07999992
2022-09-26T04:51:06.481Z,12.03999996
2022-09-26T04:52:06.572Z,12.03999996
2022-09-26T04:53:01.576Z,12.06000042
2022-09-26T04:54:00.495Z,12.06000042
2022-09-26T04:54:55.747Z,12.06999969
2022-09-26T04:55:54.684Z,12.03999996
2022-09-26T04:56:52.614Z,12.02000046
2022-09-26T04:57:55.005Z,12.01000023
2022-09-26T04:58:52.169Z,12.02999973
2022-09-26T05:00:48.154Z,12.01000023
2022-09-26T05:01:44.599Z,12.02000046
2022-09-26T05:02:46.700Z,12.02999973
2022-09-26T05:03:41.796Z,12.06000042
2022-09-26T05:05:41.931Z,12.03999996
2022-09-26T05:06:45.804Z,12.03999996
2022-09-26T05:07:38.354Z,12.02000046
2022-09-26T05:08:37.923Z,12.03999996
2022-09-26T05:10:33.130Z,12.02999973
2022-09-26T05:11:28.146Z,12.01000023
2022-09-26T05:12:31.246Z,12.02999973
2022-09-26T05:13:28.559Z,12.03999996
2022-09-26T05:14:31.095Z,12.02000046
2022-09-26T05:15:26.385Z,12.02000046
2022-09-26T05:16:28.724Z,12.03999996
2022-09-26T05:17:21.523Z,12.02999973
2022-09-26T05:18:23.279Z,12.02000046
2022-09-26T05:19:15.295Z,12.02000046
2022-09-26T05:21:19.494Z,12.02999973
2022-09-26T05:22:24.884Z,12.01000023
2022-09-26T05:23:23.365Z,12
2022-09-26T05:24:19.925Z,11.98999977
2022-09-26T05:25:45.773Z,11.97999954
2022-09-26T05:26:26.469Z,12
2022-09-26T05:27:25.921Z,12.02000046
2022-09-26T05:28:28.596Z,12.02000046
2022-09-26T05:30:31.432Z,11.94999981
2022-09-26T05:31:31.929Z,11.96000004
2022-09-26T05:32:31.738Z,11.97000027
2022-09-26T05:33:29.273Z,11.97000027
2022-09-26T05:35:27.991Z,12
2022-09-26T05:36:29.423Z,12.02000046
2022-09-26T05:37:27.482Z,12.01000023
2022-09-26T05:38:35.326Z,12.02999973
2022-09-26T05:39:30.944Z,12.02999973
2022-09-26T05:40:34.031Z,12.06999969
2022-09-26T05:41:32.625Z,12.09000015
2022-09-26T05:42:36.925Z,12.09000015
2022-09-26T05:43:29.587Z,12.06999969
2022-09-26T05:44:35.136Z,12.09000015
2022-09-26T05:45:33.679Z,12.05000019
2022-09-26T05:46:31.788Z,12.03999996
2022-09-26T05:47:32.908Z,12.05000019
2022-09-26T05:48:28.335Z,12.02999973
2022-09-26T05:50:31.517Z,12.09000015
2022-09-26T05:51:42.959Z,12.09000015
2022-09-26T05:52:41.753Z,12.07999992
2022-09-26T05:53:44.608Z,12.09000015
2022-09-26T05:54:44.371Z,12.09000015
2022-09-26T05:55:42.353Z,12.05000019
2022-09-26T05:56:42.724Z,12.02000046
2022-09-26T05:57:38.929Z,12.03999996
2022-09-26T05:58:38.622Z,12.01000023
2022-09-26T06:00:39.414Z,11.98999977
2022-09-26T06:01:32.533Z,11.98999977
2022-09-26T06:02:34.118Z,11.98999977
2022-09-26T06:03:30.868Z,12
2022-09-26T06:05:27.916Z,12.02999973
2022-09-26T06:06:30.881Z,12.02999973
2022-09-26T06:07:24.417Z,12.05000019
2022-09-26T06:09:07.921Z,12.14999962
2022-09-26T06:10:46.734Z,12.22999954
2022-09-26T06:11:43.305Z,12.23999977
2022-09-26T06:12:43.943Z,12.21000004
2022-09-26T06:13:38.931Z,12.18999958
2022-09-26T06:14:38.060Z,12.19999981
2022-09-26T06:15:33.362Z,12.19999981
2022-09-26T06:16:33.145Z,12.21000004
2022-09-26T06:17:30.601Z,12.18000031
2022-09-26T06:18:28.802Z,12.14000034
2022-09-26T06:20:24.445Z,12.13000011
2022-09-26T06:21:23.578Z,12.10999966
2022-09-26T06:22:23.719Z,12.11999989
2022-09-26T06:23:19.058Z,12.14999962
2022-09-26T06:24:19.015Z,12.18000031
2022-09-26T06:26:16.153Z,12.18999958
2022-09-26T06:27:08.057Z,12.18999958
2022-09-26T06:28:07.701Z,12.18999958
2022-09-26T06:29:02.248Z,12.18000031
2022-09-26T06:31:02.587Z,12.18999958
2022-09-26T06:31:54.668Z,12.19999981
2022-09-26T06:32:54.192Z,12.19999981
2022-09-26T06:33:48.818Z,12.18999958
2022-09-26T06:35:44.378Z,12.18999958
2022-09-26T06:36:46.351Z,12.18999958
2022-09-26T06:37:38.805Z,12.21000004
2022-09-26T06:38:40.992Z,12.22000027
2022-09-26T06:39:33.429Z,12.25
2022-09-26T06:40:35.978Z,12.23999977
2022-09-26T06:41:32.142Z,12.27000046
2022-09-26T06:42:34.193Z,12.27000046
2022-09-26T06:43:26.668Z,12.27000046
2022-09-26T06:45:21.057Z,12.30000019
2022-09-26T06:46:20.601Z,12.27000046
2022-09-26T06:47:21.986Z,12.27000046
2022-09-26T06:48:22.421Z,12.23999977
2022-09-26T06:48:24.718Z,12.23999977
2022-09-26T06:48:43.239Z,12.22999954
2022-09-26T06:51:26.273Z,12.38000011
2022-09-26T06:52:05.709Z,12.42000008
2022-09-26T06:53:10.692Z,12.44999981
2022-09-26T06:53:12.873Z,12.44999981
2022-09-26T06:54:04.966Z,12.43999958
2022-09-26T06:55:00.345Z,12.43999958
2022-09-26T06:56:00.302Z,12.46000004
2022-09-26T06:56:56.563Z,12.48999977
2022-09-26T06:57:55.863Z,12.47999954
2022-09-26T06:58:50.592Z,12.46000004
2022-09-26T07:00:46.035Z,12.42000008
2022-09-26T07:01:48.154Z,12.36999989
2022-09-26T07:02:40.695Z,12.39000034
2022-09-26T07:03:45.418Z,12.42000008
2022-09-26T07:03:46.261Z,12.42000008
2022-09-26T07:04:40.403Z,12.47999954
2022-09-26T07:05:35.860Z,12.47000027
2022-09-26T07:06:35.850Z,12.44999981
2022-09-26T07:07:30.336Z,12.39000034
2022-09-26T07:08:57.314Z,12.35000038
2022-09-26T07:09:01.086Z,12.35000038
2022-09-26T07:10:26.503Z,12.44999981
2022-09-26T07:11:38.259Z,12.47999954
2022-09-26T07:11:42.096Z,12.47999954
2022-09-26T07:12:09.912Z,12.47999954
2022-09-26T07:12:20.412Z,12.5
2022-09-26T07:13:22.668Z,12.60000038
2022-09-26T07:14:15.293Z,12.60000038
2022-09-26T07:15:15.003Z,12.59000015
2022-09-26T07:16:09.549Z,12.57999992
2022-09-26T07:17:10.377Z,12.56999969
2022-09-26T07:18:05.606Z,12.56000042
2022-09-26T07:19:04.640Z,12.52000046
2022-09-26T07:19:59.081Z,12.5
2022-09-26T07:20:58.489Z,12.39999962
2022-09-26T07:21:53.650Z,12.39000034
2022-09-26T07:22:56.059Z,12.39999962
2022-09-26T07:23:48.797Z,12.39999962
2022-09-26T07:25:43.033Z,12.39000034
2022-09-26T07:26:44.905Z,12.36999989
2022-09-26T07:27:39.260Z,12.39999962
2022-09-26T07:28:43.234Z,12.39999962
2022-09-26T07:30:37.992Z,12.44999981
2022-09-26T07:31:19.323Z,12.56000042
2022-09-26T07:32:17.465Z,12.56000042
2022-09-26T07:33:15.988Z,12.56000042
2022-09-26T07:34:14.629Z,12.52000046
2022-09-26T07:34:18.602Z,12.52000046
2022-09-26T07:36:06.112Z,12.53999996
2022-09-26T07:37:05.316Z,12.53999996
2022-09-26T07:37:59.638Z,12.52999973
2022-09-26T07:38:58.907Z,12.5
2022-09-26T07:40:00.668Z,12.48999977
2022-09-26T07:40:01.998Z,12.48999977
2022-09-26T07:40:53.589Z,12.46000004
2022-09-26T07:41:48.282Z,12.47000027
2022-09-26T07:43:15.273Z,12.42000008
2022-09-26T07:43:18.029Z,12.42000008
2022-09-26T07:45:41.022Z,12.59000015
2022-09-26T07:46:40.652Z,12.60000038
2022-09-26T07:47:35.787Z,12.61999989
2022-09-26T07:48:37.145Z,12.60000038
2022-09-26T07:49:29.833Z,12.57999992
2022-09-26T07:50:29.491Z,12.55000019
2022-09-26T07:51:28.515Z,12.48999977
2022-09-26T07:52:28.023Z,12.43999958
2022-09-26T07:53:29.735Z,12.39000034
2022-09-26T07:54:22.230Z,12.39000034
2022-09-26T07:55:23.735Z,12.38000011
2022-09-26T07:56:15.662Z,12.35000038
2022-09-26T07:57:13.686Z,12.35000038
2022-09-26T07:58:12.268Z,12.34000015
2022-09-26T07:59:06.551Z,12.32999992
2022-09-26T08:01:03.314Z,12.32999992
2022-09-26T08:01:57.558Z,12.32999992
2022-09-26T08:03:34.840Z,12.44999981
2022-09-26T08:05:34.095Z,12.97000027
2022-09-26T08:06:30.307Z,13.05000019
2022-09-26T08:07:32.506Z,13.03999996
2022-09-26T08:08:25.427Z,12.97999954
2022-09-26T08:09:26.641Z,12.89000034
2022-09-26T08:10:49.554Z,12.81000042
2022-09-26T08:11:30.758Z,12.71000004
2022-09-26T08:12:29.834Z,12.69999981
2022-09-26T08:13:32.052Z,12.65999985
2022-09-26T08:14:27.765Z,12.61999989
2022-09-26T08:15:27.749Z,12.60000038
2022-09-26T08:16:23.932Z,12.55000019
2022-09-26T08:17:23.303Z,12.51000023
2022-09-26T08:18:18.542Z,12.48999977
2022-09-26T08:19:18.384Z,12.46000004
2022-09-26T08:21:14.363Z,12.40999985
2022-09-26T08:22:11.828Z,12.39999962
2022-09-26T08:23:11.736Z,12.39000034
2022-09-26T08:24:06.992Z,12.39000034
2022-09-26T08:26:04.116Z,12.38000011
2022-09-26T08:26:59.440Z,12.39000034
2022-09-26T08:28:01.456Z,12.40999985
2022-09-26T08:28:58.490Z,12.39999962
2022-09-26T08:30:54.335Z,12.42000008
2022-09-26T08:31:56.418Z,12.40999985
2022-09-26T08:32:51.701Z,12.40999985
2022-09-26T08:33:51.488Z,12.39000034
2022-09-26T08:34:47.778Z,12.42000008
2022-09-26T08:35:50.885Z,12.39999962
2022-09-26T08:36:43.467Z,12.38000011
2022-09-26T08:37:45.995Z,12.39999962
2022-09-26T08:38:40.364Z,12.42000008
2022-09-26T08:39:37.308Z,12.42000008
2022-09-26T08:40:36.588Z,12.40999985
2022-09-26T08:41:32.020Z,12.39999962
2022-09-26T08:42:56.326Z,12.34000015
2022-09-26T08:43:36.738Z,12.36999989
2022-09-26T08:45:34.303Z,12.39000034
2022-09-26T08:46:30.062Z,12.36999989
2022-09-26T08:47:27.889Z,12.39000034
2022-09-26T08:48:30.341Z,12.39000034
2022-09-26T08:50:26.217Z,12.38000011
2022-09-26T08:51:26.757Z,12.34000015
2022-09-26T08:51:29.220Z,12.34000015
2022-09-26T08:52:20.082Z,12.32999992
2022-09-26T08:53:17.553Z,12.32999992
2022-09-26T08:54:20.589Z,12.28999996
2022-09-26T08:55:15.967Z,12.23999977
2022-09-26T08:56:18.665Z,12.26000023
2022-09-26T08:57:14.033Z,12.22999954
2022-09-26T08:58:14.057Z,12.23999977
2022-09-26T08:59:14.645Z,12.23999977
2022-09-26T09:01:12.717Z,12.19999981
2022-09-26T09:02:05.908Z,12.22000027
2022-09-26T09:03:08.063Z,12.25
2022-09-26T09:04:04.767Z,12.22000027
2022-09-26T09:06:04.460Z,12.18999958
2022-09-26T09:07:06.607Z,12.19999981
2022-09-26T09:07:59.929Z,12.22000027
2022-09-26T09:09:02.436Z,12.19999981
2022-09-26T09:09:57.105Z,12.22999954
2022-09-26T09:12:21.743Z,12.26000023
2022-09-26T09:12:24.842Z,12.26000023
2022-09-26T09:12:32.527Z,12.32999992
2022-09-26T09:13:30.602Z,12.40999985
2022-09-26T09:14:31.067Z,12.42000008
2022-09-26T09:15:26.783Z,12.43000031
2022-09-26T09:16:30.715Z,12.39999962
2022-09-26T09:17:23.531Z,12.36999989
2022-09-26T09:18:23.252Z,12.35999966
2022-09-26T09:19:18.515Z,12.31000042
2022-09-26T09:21:12.946Z,12.30000019
2022-09-26T09:22:12.268Z,12.28999996
2022-09-26T09:23:07.337Z,12.27999973
2022-09-26T09:24:06.414Z,12.25
2022-09-26T09:25:00.943Z,12.25
2022-09-26T09:27:55.049Z,12.19999981
2022-09-26T09:28:53.679Z,12.30000019
2022-09-26T09:29:49.803Z,12.31000042
2022-09-26T09:30:48.144Z,12.32999992
2022-09-26T09:31:44.375Z,12.28999996
2022-09-26T09:32:43.582Z,12.27999973
2022-09-26T09:33:38.720Z,12.27000046
2022-09-26T09:34:38.160Z,12.25
2022-09-26T09:35:33.429Z,12.22000027
2022-09-26T09:36:30.170Z,12.22999954
2022-09-26T09:37:33.732Z,12.22000027
2022-09-26T09:38:27.332Z,12.22000027
2022-09-26T09:39:30.070Z,12.18000031
2022-09-26T09:41:18.958Z,12.13000011
2022-09-26T09:42:18.573Z,12.09000015
2022-09-26T09:43:13.402Z,12.10000038
2022-09-26T09:44:15.364Z,12.10000038
2022-09-26T09:45:07.537Z,12.14999962
2022-09-26T09:46:09.811Z,12.13000011
2022-09-26T09:47:03.816Z,12.14000034
2022-09-26T09:48:27.919Z,12.15999985
2022-09-26T09:49:08.324Z,12.18999958
2022-09-26T09:51:06.519Z,12.14999962
2022-09-26T09:52:02.418Z,12.13000011
2022-09-26T09:53:00.272Z,12.06000042
2022-09-26T09:54:00.373Z,12.03999996
2022-09-26T09:54:55.535Z,12.06999969
2022-09-26T09:55:57.046Z,12.09000015
2022-09-26T09:56:52.405Z,12.06000042
2022-09-26T09:57:50.064Z,12.03999996
2022-09-26T09:58:50.969Z,12.07999992
2022-09-26T10:00:51.506Z,12.03999996
2022-09-26T10:01:44.428Z,12.05000019
2022-09-26T10:02:42.812Z,12.05000019
2022-09-26T10:03:43.969Z,12.09000015
2022-09-26T10:05:42.595Z,12.13000011
2022-09-26T10:06:44.302Z,12.17000008
2022-09-26T10:06:45.944Z,12.17000008
2022-09-26T10:07:39.946Z,12.23999977
2022-09-26T10:08:34.372Z,12.25
2022-09-26T10:09:39.193Z,12.27000046
2022-09-26T10:10:32.845Z,12.32999992
2022-09-26T10:11:29.138Z,12.30000019
2022-09-26T10:12:27.251Z,12.28999996
2022-09-26T10:13:30.341Z,12.22000027
2022-09-26T10:14:23.740Z,12.22000027
2022-09-26T10:15:26.782Z,12.28999996
2022-09-26T10:16:21.115Z,12.28999996
2022-09-26T10:17:20.950Z,12.25
2022-09-26T10:18:24.787Z,12.27000046
2022-09-26T10:18:25.362Z,12.27000046
2022-09-26T10:20:12.541Z,12.36999989
2022-09-26T10:20:54.615Z,12.43999958
2022-09-26T10:21:53.863Z,12.44999981
2022-09-26T10:22:52.847Z,12.32999992
2022-09-26T10:23:54.119Z,12.35000038
2022-09-26T10:25:51.496Z,12.31000042
2022-09-26T10:26:51.122Z,12.31999969
2022-09-26T10:27:48.235Z,12.31000042
2022-09-26T10:28:49.308Z,12.31999969
2022-09-26T10:30:46.816Z,12.31000042
2022-09-26T10:31:43.600Z,12.27999973
2022-09-26T10:32:44.559Z,12.26000023
2022-09-26T10:33:40.911Z,12.27000046
2022-09-26T10:34:45.024Z,12.28999996
2022-09-26T10:35:40.209Z,12.31000042
2022-09-26T10:36:40.508Z,12.34000015
2022-09-26T10:37:37.397Z,12.32999992
2022-09-26T10:38:38.366Z,12.35999966
2022-09-26T10:51:57.882Z,14.44999981
2022-09-26T10:53:03.247Z,14.35999966
2022-09-26T11:28:31.258Z,16
2022-09-26T11:30:38.248Z,15.84000015
2022-09-26T11:31:34.618Z,15.65999985
2022-09-26T11:32:40.376Z,15.34000015
2022-09-26T11:33:36.094Z,15.14999962
2022-09-26T11:34:41.707Z,14.97000027
2022-09-26T11:35:37.056Z,14.84000015
2022-09-26T11:36:42.104Z,14.68000031
2022-09-26T11:37:40.024Z,14.60000038
2022-09-26T11:38:37.593Z,14.52000046
2022-09-26T11:40:37.424Z,14.26000023
2022-09-26T11:41:40.443Z,14.19999981
2022-09-26T11:42:38.949Z,14.06999969
2022-09-26T11:44:25.250Z,14.10999966
2022-09-26T11:46:02.736Z,14.15999985
2022-09-26T11:46:42.737Z,14.18000031
2022-09-26T11:47:42.672Z,14.15999985
2022-09-26T11:48:37.602Z,14.02000046
2022-09-26T11:49:34.910Z,13.93000031
2022-09-26T11:50:34.757Z,13.93000031
2022-09-26T11:51:29.555Z,13.92000008
2022-09-26T11:52:27.762Z,13.90999985
2022-09-26T11:53:26.818Z,13.80000019
2022-09-26T11:54:21.689Z,13.82999992
2022-09-26T11:56:18.831Z,13.80000019
2022-09-26T11:57:13.649Z,13.81000042
2022-09-26T11:58:12.861Z,13.80000019
2022-09-26T11:59:10.704Z,13.77999973
2022-09-26T12:00:05.587Z,13.77999973
2022-09-26T12:01:03.132Z,13.77000046
2022-09-26T12:02:05.108Z,13.65999985
2022-09-26T12:02:57.651Z,13.68999958
2022-09-26T12:03:59.911Z,13.64999962
2022-09-26T12:04:52.209Z,13.67000008
2022-09-26T12:05:52.286Z,13.71000004
2022-09-26T12:06:47.636Z,13.73999977
2022-09-26T12:07:46.856Z,13.75
2022-09-26T12:08:42.118Z,13.77000046
2022-09-26T12:09:44.347Z,13.80000019
2022-09-26T12:10:36.781Z,13.85999966
2022-09-26T12:11:39.056Z,13.85000038
2022-09-26T12:12:31.724Z,13.84000015
2022-09-26T12:13:34.137Z,13.81000042
2022-09-26T12:14:26.696Z,13.77999973
2022-09-26T12:15:29.136Z,13.80000019
2022-09-26T12:16:22.253Z,13.81000042
2022-09-26T12:17:24.546Z,13.81999969
2022-09-26T12:18:17.201Z,13.85000038
2022-09-26T12:19:19.220Z,13.88000011
2022-09-26T12:21:11.114Z,13.89999962
2022-09-26T12:22:10.860Z,13.82999992
2022-09-26T12:23:08.749Z,13.59000015
2022-09-26T12:24:01.174Z,13.64999962
2022-09-26T12:25:46.982Z,13.67000008
2022-09-26T12:26:07.354Z,13.68000031
2022-09-26T12:27:06.047Z,13.81000042
2022-09-26T12:28:39.894Z,13.81999969
2022-09-26T12:29:19.876Z,13.85999966
2022-09-26T12:30:17.906Z,13.89000034
2022-09-26T12:31:19.694Z,13.81000042
2022-09-26T12:32:14.677Z,13.76000023
2022-09-26T12:33:09.947Z,13.76000023
2022-09-26T12:34:09.342Z,13.71000004